Terminal Aerodrome Forecast
Issued by NWS

Home | Current Version | Previous Version | Text Only | Print | Product List | Glossary On
Versions: 1 2 3 4 5 6 7 8 9 10 11 12 13
941
FTUS45 KABQ 260530
TAFFMN
TAF
KFMN 260530Z 2606/2706 28009KT P6SM SCT130
     FM260900 08007KT P6SM FEW130
     FM262030 24014G24KT P6SM FEW150
     FM270200 24010KT P6SM FEW150=

USA.gov is the U.S. government's official web portal to all federal, state and local government web resources and services.